createdAt,value
2023-01-22T00:00:16.085Z,90.15
2023-01-22T00:02:46.205Z,89.80
2023-01-22T00:05:15.949Z,89.88
2023-01-22T00:07:47.150Z,90.07
2023-01-22T00:10:17.239Z,90.57
2023-01-22T00:12:46.742Z,90.39
2023-01-22T00:15:16.406Z,90.14
2023-01-22T00:17:45.912Z,90.13
2023-01-22T00:20:16.243Z,90.03
2023-01-22T00:22:45.893Z,89.87
2023-01-22T00:25:15.531Z,89.73
2023-01-22T00:27:45.051Z,89.85
2023-01-22T00:30:14.894Z,90.11
2023-01-22T00:32:44.408Z,90.02
2023-01-22T00:35:17.067Z,90.60
2023-01-22T00:37:49.787Z,90.65
2023-01-22T00:40:20.552Z,90.89
2023-01-22T00:42:50.225Z,91.25
2023-01-22T00:45:20.045Z,91.02
2023-01-22T00:47:49.782Z,91.12
2023-01-22T00:50:20.761Z,90.94
2023-01-22T00:52:50.393Z,91.01
2023-01-22T00:55:20.563Z,90.95
2023-01-22T00:57:50.144Z,91.23
2023-01-22T01:00:21.320Z,91.08
2023-01-22T01:03:11.026Z,91.48
2023-01-22T01:05:44.714Z,91.33
2023-01-22T01:08:15.537Z,91.60
2023-01-22T01:10:48.942Z,92.00
2023-01-22T01:13:20.089Z,91.81
2023-01-22T01:15:51.413Z,91.48
2023-01-22T01:18:23.382Z,91.78
2023-01-22T01:20:58.705Z,92.83
2023-01-22T01:23:30.412Z,92.23
2023-01-22T01:26:00.931Z,91.85
2023-01-22T01:28:31.832Z,92.41
2023-01-22T01:31:08.244Z,92.63
2023-01-22T01:33:37.932Z,92.23
2023-01-22T01:36:15.037Z,92.19
2023-01-22T01:38:46.426Z,92.11
2023-01-22T01:41:19.765Z,91.85
2023-01-22T01:44:07.891Z,91.75
2023-01-22T01:46:50.150Z,91.63
2023-01-22T01:49:47.112Z,91.65
2023-01-22T01:52:19.071Z,91.67
2023-01-22T01:54:54.364Z,91.99
2023-01-22T01:57:29.364Z,92.65
2023-01-22T02:00:02.144Z,92.32
2023-01-22T02:02:43.155Z,92.21
2023-01-22T02:05:13.869Z,92.47
2023-01-22T02:07:45.152Z,92.39
2023-01-22T02:10:16.736Z,92.20
2023-01-22T02:12:47.522Z,92.23
2023-01-22T02:15:17.961Z,92.10
2023-01-22T02:17:49.916Z,92.32
2023-01-22T02:20:21.037Z,92.10
2023-01-22T02:22:51.780Z,92.22
2023-01-22T02:25:22.246Z,92.26
2023-01-22T02:27:52.665Z,92.07
2023-01-22T02:30:25.392Z,91.79
2023-01-22T02:32:55.917Z,91.93
2023-01-22T02:35:27.867Z,91.61
2023-01-22T02:37:58.532Z,91.42
2023-01-22T02:40:31.279Z,91.13
2023-01-22T02:43:03.286Z,90.91
2023-01-22T02:45:36.599Z,91.00
2023-01-22T02:48:07.937Z,90.50
2023-01-22T02:50:39.152Z,90.41
2023-01-22T02:53:09.792Z,90.29
2023-01-22T02:55:41.140Z,90.56
2023-01-22T02:58:12.384Z,90.44
2023-01-22T03:00:42.584Z,91.78
2023-01-22T03:03:16.838Z,91.67
2023-01-22T03:05:52.440Z,91.42
2023-01-22T03:08:22.878Z,91.64
2023-01-22T03:10:53.195Z,90.91
2023-01-22T03:13:41.559Z,90.01
2023-01-22T03:16:31.719Z,90.57
2023-01-22T03:19:24.200Z,90.09
2023-01-22T03:21:55.394Z,90.00
2023-01-22T03:24:26.900Z,89.78
2023-01-22T03:26:58.381Z,89.33
2023-01-22T03:29:31.711Z,90.19
2023-01-22T03:32:03.177Z,90.03
2023-01-22T03:34:34.952Z,89.49
2023-01-22T03:37:08.828Z,88.95
2023-01-22T03:39:40.207Z,88.15
2023-01-22T03:42:11.369Z,87.94
2023-01-22T03:44:43.238Z,88.23
2023-01-22T03:47:12.781Z,88.50
2023-01-22T03:49:42.507Z,87.13
2023-01-22T03:52:13.218Z,86.44
2023-01-22T03:54:42.991Z,86.71
2023-01-22T03:57:13.893Z,86.93
2023-01-22T03:59:44.853Z,86.41
2023-01-22T04:02:14.512Z,86.08
2023-01-22T04:05:02.025Z,85.29
2023-01-22T04:07:33.555Z,84.78
2023-01-22T04:10:03.456Z,84.91
2023-01-22T04:12:33.045Z,85.07
2023-01-22T04:15:05.835Z,85.10
2023-01-22T04:17:35.589Z,84.30
2023-01-22T04:20:33.917Z,83.85
2023-01-22T04:23:26.559Z,84.22
2023-01-22T04:25:56.556Z,84.75
2023-01-22T04:28:26.431Z,83.90
2023-01-22T04:30:58.321Z,83.77
2023-01-22T04:33:39.547Z,83.85
2023-01-22T04:36:13.718Z,82.81
2023-01-22T04:38:44.413Z,82.17
2023-01-22T04:41:14.573Z,81.88
2023-01-22T04:43:45.613Z,81.62
2023-01-22T04:46:15.916Z,80.78
2023-01-22T04:48:47.264Z,80.89
2023-01-22T04:51:18.258Z,79.18
2023-01-22T04:53:48.050Z,79.49
2023-01-22T04:56:19.484Z,79.80
2023-01-22T04:58:50.794Z,79.31
2023-01-22T05:01:20.606Z,79.92
2023-01-22T05:03:50.132Z,79.29
2023-01-22T05:06:19.672Z,78.34
2023-01-22T05:08:49.216Z,78.72
2023-01-22T05:11:18.845Z,79.75
2023-01-22T05:13:59.608Z,78.35
2023-01-22T05:16:29.508Z,78.51
2023-01-22T05:18:59.357Z,78.20
2023-01-22T05:21:29.900Z,77.23
2023-01-22T05:23:59.370Z,77.77
2023-01-22T05:26:31.386Z,77.61
2023-01-22T05:29:06.161Z,77.09
2023-01-22T05:31:54.854Z,77.45
2023-01-22T05:34:41.310Z,75.84
2023-01-22T05:37:12.626Z,75.68
2023-01-22T05:39:42.406Z,75.89
2023-01-22T05:42:17.566Z,74.90
2023-01-22T05:44:50.322Z,75.43
2023-01-22T05:47:23.582Z,74.89
2023-01-22T05:50:13.304Z,74.82
2023-01-22T05:52:43.965Z,73.40
2023-01-22T05:55:13.912Z,73.05
2023-01-22T05:57:48.586Z,73.57
2023-01-22T06:00:21.031Z,73.23
2023-01-22T06:03:02.037Z,73.32
2023-01-22T06:05:40.522Z,72.04
2023-01-22T06:08:10.738Z,72.48
2023-01-22T06:10:50.250Z,71.37
2023-01-22T06:13:21.328Z,70.13
2023-01-22T06:15:58.181Z,70.53
2023-01-22T06:18:50.402Z,70.15
2023-01-22T06:21:20.179Z,69.14
2023-01-22T06:23:49.830Z,68.13
2023-01-22T06:26:20.092Z,67.73
2023-01-22T06:28:49.817Z,67.67
2023-01-22T06:31:19.517Z,68.05
2023-01-22T06:33:49.342Z,67.87
2023-01-22T06:36:18.802Z,66.71
2023-01-22T06:38:48.812Z,67.13
2023-01-22T06:41:23.072Z,66.22
2023-01-22T06:43:58.017Z,66.41
2023-01-22T06:46:27.970Z,66.81
2023-01-22T06:49:12.303Z,66.56
2023-01-22T06:51:43.183Z,65.68
2023-01-22T06:54:15.162Z,65.51
2023-01-22T06:56:45.814Z,65.43
2023-01-22T06:59:16.365Z,64.38
2023-01-22T07:01:46.079Z,63.54
2023-01-22T07:04:15.462Z,64.18
2023-01-22T07:06:44.896Z,62.13
2023-01-22T07:09:14.979Z,60.56
2023-01-22T07:11:45.055Z,61.12
2023-01-22T07:14:14.694Z,61.42
2023-01-22T07:16:44.173Z,62.55
2023-01-22T07:19:13.640Z,62.66
2023-01-22T07:21:43.149Z,61.15
2023-01-22T07:24:13.495Z,60.65
2023-01-22T07:26:44.543Z,60.53
2023-01-22T07:29:14.265Z,59.87
2023-01-22T07:31:44.194Z,60.69
2023-01-22T07:34:14.154Z,61.07
2023-01-22T07:36:43.664Z,60.32
2023-01-22T07:39:12.977Z,60.48
2023-01-22T07:41:42.593Z,58.93
2023-01-22T07:44:14.250Z,58.07
2023-01-22T07:46:44.405Z,58.97
2023-01-22T07:49:14.059Z,57.60
2023-01-22T07:51:43.599Z,60.25
2023-01-22T07:54:12.911Z,60.54
2023-01-22T07:56:42.587Z,57.31
2023-01-22T07:59:12.163Z,55.98
2023-01-22T08:01:41.867Z,57.33
2023-01-22T08:04:11.208Z,56.16
2023-01-22T08:06:40.978Z,55.25
2023-01-22T08:09:10.586Z,55.45
2023-01-22T08:11:40.255Z,55.19
2023-01-22T08:14:09.729Z,52.77
2023-01-22T08:16:39.260Z,54.45
2023-01-22T08:19:08.990Z,54.78
2023-01-22T08:21:38.306Z,55.66
2023-01-22T08:24:09.407Z,54.58
2023-01-22T08:26:40.374Z,54.20
2023-01-22T08:29:10.353Z,54.03
2023-01-22T08:31:40.148Z,55.47
2023-01-22T08:34:09.875Z,55.02
2023-01-22T08:36:39.393Z,55.83
2023-01-22T08:39:09.145Z,55.08
2023-01-22T08:41:38.786Z,55.17
2023-01-22T08:44:08.914Z,52.54
2023-01-22T08:46:41.314Z,52.80
2023-01-22T08:49:11.127Z,52.13
2023-01-22T08:51:40.756Z,53.56
2023-01-22T08:54:10.103Z,53.62
2023-01-22T08:56:39.903Z,53.73
2023-01-22T08:59:09.727Z,54.55
2023-01-22T09:01:39.092Z,53.80
2023-01-22T09:04:10.884Z,53.81
2023-01-22T09:06:43.520Z,54.28
2023-01-22T09:09:14.432Z,52.76
2023-01-22T09:11:44.603Z,52.67
2023-01-22T09:14:15.339Z,52.39
2023-01-22T09:16:45.178Z,53.01
2023-01-22T09:19:14.847Z,52.29
2023-01-22T09:21:44.265Z,52.32
2023-01-22T09:24:14.011Z,52.19
2023-01-22T09:26:43.773Z,51.70
2023-01-22T09:29:13.360Z,51.15
2023-01-22T09:31:43.162Z,51.59
2023-01-22T09:34:14.987Z,50.57
2023-01-22T09:36:44.747Z,50.42
2023-01-22T09:39:14.114Z,49.92
2023-01-22T09:41:51.856Z,50.00
2023-01-22T09:44:29.004Z,51.92
2023-01-22T09:47:21.966Z,51.98
2023-01-22T09:50:20.710Z,50.23
2023-01-22T09:52:53.204Z,50.20
2023-01-22T09:55:32.160Z,50.06
2023-01-22T09:58:06.781Z,49.20
2023-01-22T10:00:48.386Z,47.94
2023-01-22T10:03:27.340Z,48.11
2023-01-22T10:06:06.029Z,48.01
2023-01-22T10:08:55.631Z,46.93
2023-01-22T10:11:25.663Z,46.17
2023-01-22T10:14:00.553Z,46.12
2023-01-22T10:16:30.804Z,46.36
2023-01-22T10:19:19.040Z,46.54
2023-01-22T10:22:02.944Z,45.89
2023-01-22T10:24:32.626Z,45.27
2023-01-22T10:27:13.570Z,45.34
2023-01-22T10:29:45.505Z,46.96
2023-01-22T10:32:31.239Z,46.65
2023-01-22T10:35:06.366Z,46.33
2023-01-22T10:37:56.619Z,46.84
2023-01-22T10:40:44.939Z,46.29
2023-01-22T10:43:19.423Z,46.25
2023-01-22T10:46:04.033Z,46.38
2023-01-22T10:48:35.272Z,46.41
2023-01-22T10:51:15.988Z,47.45
2023-01-22T10:53:57.047Z,48.06
2023-01-22T10:56:40.098Z,48.61
2023-01-22T10:59:28.757Z,48.42
2023-01-22T11:02:19.131Z,48.93
2023-01-22T11:04:49.006Z,49.50
2023-01-22T11:07:32.691Z,49.72
2023-01-22T11:10:05.302Z,50.49
2023-01-22T11:12:48.825Z,50.25
2023-01-22T11:15:36.967Z,50.34
2023-01-22T11:18:09.101Z,50.90
2023-01-22T11:20:57.632Z,50.52
2023-01-22T11:24:05.244Z,51.22
2023-01-22T11:26:53.413Z,51.73
2023-01-22T11:29:53.315Z,51.71
2023-01-22T11:32:58.239Z,51.94
2023-01-22T11:35:51.917Z,52.46
2023-01-22T11:38:38.385Z,52.89
2023-01-22T11:41:17.420Z,53.47
2023-01-22T11:44:22.262Z,53.48
2023-01-22T11:47:13.215Z,53.36
2023-01-22T11:49:45.708Z,53.49
2023-01-22T11:52:32.075Z,53.07
2023-01-22T11:55:20.098Z,53.63
2023-01-22T11:58:14.158Z,53.95
2023-01-22T12:00:50.943Z,54.32
2023-01-22T12:03:23.415Z,54.65
2023-01-22T12:05:56.071Z,54.47
2023-01-22T12:08:41.611Z,54.17
2023-01-22T12:11:14.166Z,54.96
2023-01-22T12:14:12.982Z,54.87
2023-01-22T12:16:53.670Z,55.54
2023-01-22T12:19:31.811Z,55.54
2023-01-22T12:22:38.118Z,55.58
2023-01-22T12:25:21.185Z,55.88
2023-01-22T12:28:01.674Z,56.02
2023-01-22T12:30:46.550Z,56.08
2023-01-22T12:33:29.302Z,56.84
2023-01-22T12:36:02.406Z,57.03
2023-01-22T12:38:54.928Z,57.33
2023-01-22T12:41:36.587Z,57.73
2023-01-22T12:44:47.249Z,58.34
2023-01-22T12:47:31.102Z,59.41
2023-01-22T12:50:00.634Z,59.84
2023-01-22T12:52:33.204Z,60.32
2023-01-22T12:55:03.693Z,60.80
2023-01-22T12:57:43.491Z,60.75
2023-01-22T13:00:32.714Z,60.79
2023-01-22T13:03:31.745Z,61.00
2023-01-22T13:06:04.582Z,60.63
2023-01-22T13:08:45.877Z,61.00
2023-01-22T13:11:30.838Z,61.16
2023-01-22T13:14:23.019Z,61.44
2023-01-22T13:17:01.556Z,61.54
2023-01-22T13:19:46.940Z,61.96
2023-01-22T13:22:21.267Z,62.18
2023-01-22T13:24:56.212Z,62.30
2023-01-22T13:27:27.892Z,62.66
2023-01-22T13:30:19.184Z,62.40
2023-01-22T13:32:48.925Z,62.86
2023-01-22T13:35:20.023Z,62.84
2023-01-22T13:37:52.872Z,63.38
2023-01-22T13:40:24.694Z,63.00
2023-01-22T13:42:55.017Z,63.87
2023-01-22T13:45:30.159Z,64.11
2023-01-22T13:48:04.973Z,64.35
2023-01-22T13:50:34.764Z,64.52
2023-01-22T13:53:05.043Z,64.79
2023-01-22T13:55:36.150Z,65.34
2023-01-22T13:58:06.485Z,66.17
2023-01-22T14:00:37.685Z,66.11
2023-01-22T14:03:23.890Z,66.97
2023-01-22T14:06:14.041Z,66.83
2023-01-22T14:09:01.466Z,67.21
2023-01-22T14:11:40.206Z,67.41
2023-01-22T14:14:20.989Z,67.48
2023-01-22T14:16:51.077Z,68.16
2023-01-22T14:19:20.739Z,68.34
2023-01-22T14:21:50.357Z,68.42
2023-01-22T14:24:19.759Z,68.42
2023-01-22T14:26:49.468Z,68.48
2023-01-22T14:29:18.938Z,68.95
2023-01-22T14:31:48.661Z,69.06
2023-01-22T14:34:18.288Z,69.55
2023-01-22T14:36:50.655Z,69.50
2023-01-22T14:39:20.105Z,69.86
2023-01-22T14:41:52.574Z,70.32
2023-01-22T14:44:22.182Z,70.54
2023-01-22T14:46:54.274Z,70.77
2023-01-22T14:49:23.880Z,70.96
2023-01-22T14:51:56.230Z,71.15
2023-01-22T14:54:26.176Z,71.41
2023-01-22T14:56:57.208Z,71.32
2023-01-22T14:59:26.697Z,71.02
2023-01-22T15:01:55.970Z,71.68
2023-01-22T15:04:25.649Z,71.94
2023-01-22T15:06:55.226Z,72.29
2023-01-22T15:09:24.842Z,72.20
2023-01-22T15:11:54.289Z,72.42
2023-01-22T15:14:24.086Z,72.65
2023-01-22T15:16:53.973Z,72.76
2023-01-22T15:19:23.757Z,72.97
2023-01-22T15:21:53.291Z,73.15
2023-01-22T15:24:24.755Z,73.28
2023-01-22T15:26:54.854Z,72.90
2023-01-22T15:29:25.658Z,73.83
2023-01-22T15:31:55.146Z,74.32
2023-01-22T15:34:25.149Z,75.36
2023-01-22T15:36:54.548Z,75.01
2023-01-22T15:39:24.138Z,74.74
2023-01-22T15:41:53.842Z,74.59
2023-01-22T15:44:23.347Z,74.89
2023-01-22T15:46:53.190Z,75.11
2023-01-22T15:49:22.877Z,76.04
2023-01-22T15:51:52.451Z,75.89
2023-01-22T15:54:23.764Z,75.82
2023-01-22T15:56:54.525Z,75.47
2023-01-22T15:59:24.646Z,76.21
2023-01-22T16:01:54.505Z,76.23
2023-01-22T16:04:24.430Z,76.08
2023-01-22T16:06:54.814Z,76.05
2023-01-22T16:09:25.197Z,76.53
2023-01-22T16:11:58.818Z,76.78
2023-01-22T16:14:30.413Z,76.66
2023-01-22T16:17:02.213Z,76.44
2023-01-22T16:19:32.294Z,76.74
2023-01-22T16:22:02.656Z,77.02
2023-01-22T16:24:32.882Z,77.08
2023-01-22T16:27:02.951Z,77.00
2023-01-22T16:29:32.710Z,77.05
2023-01-22T16:32:02.645Z,77.44
2023-01-22T16:34:32.508Z,77.60
2023-01-22T16:37:02.226Z,77.94
2023-01-22T16:39:35.550Z,78.20
2023-01-22T16:42:05.610Z,78.04
2023-01-22T16:44:35.039Z,78.54
2023-01-22T16:47:05.090Z,78.82
2023-01-22T16:49:35.798Z,79.53
2023-01-22T16:52:21.303Z,78.93
2023-01-22T16:54:54.444Z,78.87
2023-01-22T16:57:23.605Z,78.39
2023-01-22T16:59:53.252Z,78.66
2023-01-22T17:02:23.229Z,78.72
2023-01-22T17:04:54.391Z,78.69
2023-01-22T17:07:33.549Z,79.33
2023-01-22T17:10:04.509Z,79.52
2023-01-22T17:12:35.218Z,79.80
2023-01-22T17:15:09.275Z,79.58
2023-01-22T17:17:39.695Z,79.08
2023-01-22T17:20:10.796Z,79.06
2023-01-22T17:22:41.797Z,78.97
2023-01-22T17:25:11.946Z,79.32
2023-01-22T17:27:43.235Z,79.10
2023-01-22T17:30:13.427Z,79.18
2023-01-22T17:32:42.951Z,79.13
2023-01-22T17:35:14.680Z,79.29
2023-01-22T17:37:44.488Z,79.35
2023-01-22T17:40:14.664Z,79.76
2023-01-22T17:42:44.118Z,79.28
2023-01-22T17:45:14.000Z,79.81
2023-01-22T17:47:46.904Z,79.47
2023-01-22T17:50:15.935Z,79.65
2023-01-22T17:52:45.534Z,79.92
2023-01-22T17:55:15.026Z,80.14
2023-01-22T17:57:44.719Z,80.72
2023-01-22T18:00:15.062Z,79.94
2023-01-22T18:02:44.770Z,79.35
2023-01-22T18:05:15.389Z,79.59
2023-01-22T18:07:45.055Z,80.16
2023-01-22T18:10:14.630Z,79.40
2023-01-22T18:12:45.663Z,78.74
2023-01-22T18:15:15.239Z,78.72
2023-01-22T18:17:44.839Z,78.54
2023-01-22T18:20:14.807Z,78.17
2023-01-22T18:22:44.116Z,78.04
2023-01-22T18:25:13.995Z,77.77
2023-01-22T18:27:43.806Z,78.01
2023-01-22T18:30:13.548Z,77.88
2023-01-22T18:32:43.246Z,78.17
2023-01-22T18:35:12.802Z,77.97
2023-01-22T18:37:42.319Z,77.59
2023-01-22T18:40:13.125Z,77.09
2023-01-22T18:42:42.668Z,77.17
2023-01-22T18:45:13.304Z,77.13
2023-01-22T18:47:42.790Z,76.87
2023-01-22T18:50:15.162Z,77.47
2023-01-22T18:52:45.635Z,76.91
2023-01-22T18:55:18.060Z,77.04
2023-01-22T18:57:57.931Z,76.82
2023-01-22T19:00:38.765Z,76.85
2023-01-22T19:03:08.926Z,76.97
2023-01-22T19:05:41.099Z,76.88
2023-01-22T19:08:11.303Z,76.61
2023-01-22T19:10:40.897Z,76.41
2023-01-22T19:13:10.510Z,76.71
2023-01-22T19:15:40.548Z,76.72
2023-01-22T19:18:10.806Z,76.59
2023-01-22T19:20:41.122Z,76.59
2023-01-22T19:23:11.388Z,76.99
2023-01-22T19:25:40.926Z,76.91
2023-01-22T19:28:10.514Z,76.99
2023-01-22T19:30:41.094Z,77.04
2023-01-22T19:33:10.880Z,77.12
2023-01-22T19:35:48.119Z,77.00
2023-01-22T19:38:19.085Z,77.04
2023-01-22T19:40:49.023Z,77.10
2023-01-22T19:43:18.569Z,77.21
2023-01-22T19:45:48.186Z,77.31
2023-01-22T19:48:17.758Z,77.32
2023-01-22T19:50:47.311Z,77.45
2023-01-22T19:53:17.046Z,77.50
2023-01-22T19:55:46.394Z,77.42
2023-01-22T19:58:16.155Z,77.59
2023-01-22T20:00:46.307Z,77.63
2023-01-22T20:03:15.938Z,77.63
2023-01-22T20:05:46.554Z,77.94
2023-01-22T20:08:16.476Z,77.85
2023-01-22T20:10:46.385Z,77.69
2023-01-22T20:13:16.070Z,77.96
2023-01-22T20:15:45.932Z,77.58
2023-01-22T20:18:15.412Z,77.58
2023-01-22T20:20:52.745Z,77.64
2023-01-22T20:23:23.121Z,77.59
2023-01-22T20:25:53.540Z,77.82
2023-01-22T20:28:24.401Z,77.61
2023-01-22T20:31:07.091Z,78.09
2023-01-22T20:33:36.948Z,77.58
2023-01-22T20:36:09.758Z,77.27
2023-01-22T20:38:39.477Z,77.22
2023-01-22T20:41:12.279Z,76.94
2023-01-22T20:43:43.692Z,77.02
2023-01-22T20:46:16.955Z,77.27
2023-01-22T20:48:47.404Z,76.90
2023-01-22T20:51:19.764Z,76.99
2023-01-22T20:53:50.942Z,76.99
2023-01-22T20:56:31.501Z,76.63
2023-01-22T20:59:04.743Z,77.17
2023-01-22T21:01:35.119Z,76.59
2023-01-22T21:04:06.367Z,76.97
2023-01-22T21:06:37.635Z,77.13
2023-01-22T21:09:08.969Z,76.65
2023-01-22T21:11:41.324Z,76.71
2023-01-22T21:14:17.685Z,76.65
2023-01-22T21:16:48.062Z,76.34
2023-01-22T21:19:24.636Z,76.07
2023-01-22T21:21:56.525Z,76.05
2023-01-22T21:24:26.686Z,75.54
2023-01-22T21:26:56.430Z,75.62
2023-01-22T21:29:26.188Z,75.42
2023-01-22T21:31:56.033Z,75.10
2023-01-22T21:34:27.649Z,75.15
2023-01-22T21:36:59.742Z,74.80
2023-01-22T21:39:31.932Z,74.61
2023-01-22T21:42:20.356Z,74.29
2023-01-22T21:45:08.442Z,74.30
2023-01-22T21:47:38.012Z,73.98
2023-01-22T21:50:08.557Z,73.57
2023-01-22T21:52:38.133Z,73.75
2023-01-22T21:55:09.030Z,73.79
2023-01-22T21:57:39.520Z,74.37
2023-01-22T22:00:10.153Z,73.94
2023-01-22T22:02:40.161Z,74.25
2023-01-22T22:05:09.958Z,74.36
2023-01-22T22:07:39.548Z,74.29
2023-01-22T22:10:13.935Z,74.51
2023-01-22T22:12:44.034Z,74.50
2023-01-22T22:15:16.930Z,74.46
2023-01-22T22:17:46.577Z,74.70
2023-01-22T22:20:16.141Z,75.11
2023-01-22T22:22:46.935Z,75.17
2023-01-22T22:25:16.657Z,75.32
2023-01-22T22:27:46.151Z,75.44
2023-01-22T22:30:15.680Z,75.35
2023-01-22T22:32:45.336Z,75.26
2023-01-22T22:35:14.754Z,75.95
2023-01-22T22:37:44.443Z,75.37
2023-01-22T22:40:14.553Z,75.94
2023-01-22T22:42:44.281Z,75.60
2023-01-22T22:45:13.783Z,76.00
2023-01-22T22:47:43.105Z,76.11
2023-01-22T22:50:13.008Z,75.98
2023-01-22T22:52:43.236Z,75.89
2023-01-22T22:55:13.093Z,75.73
2023-01-22T22:57:42.382Z,75.58
2023-01-22T23:00:14.783Z,75.80
2023-01-22T23:02:44.417Z,75.54
2023-01-22T23:05:13.780Z,75.27
2023-01-22T23:07:43.813Z,75.79
2023-01-22T23:10:29.821Z,75.69
2023-01-22T23:13:02.174Z,76.19
2023-01-22T23:15:32.782Z,76.03
2023-01-22T23:18:02.637Z,76.49
2023-01-22T23:20:32.147Z,76.78
2023-01-22T23:23:01.804Z,76.63
2023-01-22T23:25:31.145Z,76.17
2023-01-22T23:28:00.712Z,75.71
2023-01-22T23:30:30.320Z,75.54
2023-01-22T23:32:59.831Z,76.52
2023-01-22T23:35:29.742Z,75.81
2023-01-22T23:37:59.632Z,76.13
2023-01-22T23:40:29.002Z,76.25
2023-01-22T23:42:58.914Z,76.26
2023-01-22T23:45:28.807Z,75.67
2023-01-22T23:47:58.543Z,75.44
2023-01-22T23:50:29.273Z,75.22
2023-01-22T23:52:58.972Z,75.49
2023-01-22T23:55:28.489Z,75.27
2023-01-22T23:57:57.956Z,75.29
